createdAt,value
2023-05-19T00:00:26.204Z,0.90
2023-05-19T00:02:53.188Z,0.82
2023-05-19T00:05:20.413Z,1.52
2023-05-19T00:07:49.083Z,0.65
2023-05-19T00:10:16.855Z,0.82
2023-05-19T00:12:44.458Z,0.90
2023-05-19T00:15:11.911Z,0.90
2023-05-19T00:17:38.819Z,0.77
2023-05-19T00:20:07.480Z,0.90
2023-05-19T00:22:34.454Z,0.95
2023-05-19T00:25:01.227Z,0.85
2023-05-19T00:27:27.974Z,0.82
2023-05-19T00:29:54.814Z,0.85
2023-05-19T00:32:21.620Z,1.00
2023-05-19T00:34:49.422Z,1.27
2023-05-19T00:37:17.118Z,0.70
2023-05-19T00:39:43.906Z,0.55
2023-05-19T00:42:10.797Z,0.60
2023-05-19T00:44:40.658Z,0.63
2023-05-19T00:47:08.447Z,0.50
2023-05-19T00:49:36.121Z,0.63
2023-05-19T00:52:03.138Z,0.65
2023-05-19T00:54:29.987Z,0.57
2023-05-19T00:56:58.373Z,0.93
2023-05-19T00:59:25.191Z,0.80
2023-05-19T01:01:52.947Z,0.90
2023-05-19T01:04:21.660Z,0.70
2023-05-19T01:06:55.230Z,0.82
2023-05-19T01:09:22.731Z,0.70
2023-05-19T01:11:50.787Z,0.55
2023-05-19T01:14:18.652Z,0.80
2023-05-19T01:17:06.844Z,1.00
2023-05-19T01:19:53.982Z,0.57
2023-05-19T01:22:59.152Z,0.80
2023-05-19T01:25:38.662Z,1.08
2023-05-19T01:28:30.028Z,0.98
2023-05-19T01:31:00.103Z,1.27
2023-05-19T01:33:30.104Z,1.10
2023-05-19T01:35:58.885Z,1.10
2023-05-19T01:38:28.178Z,0.80
2023-05-19T01:40:57.320Z,1.13
2023-05-19T01:43:25.966Z,1.20
2023-05-19T01:45:54.570Z,1.63
2023-05-19T01:48:22.760Z,0.70
2023-05-19T01:50:49.632Z,0.90
2023-05-19T01:53:16.603Z,0.70
2023-05-19T01:55:49.870Z,1.17
2023-05-19T01:58:43.872Z,1.10
2023-05-19T02:01:29.458Z,0.57
2023-05-19T02:04:05.279Z,1.20
2023-05-19T02:06:55.347Z,0.80
2023-05-19T02:09:40.685Z,0.68
2023-05-19T02:12:19.993Z,0.77
2023-05-19T02:15:04.222Z,0.60
2023-05-19T02:17:40.168Z,0.85
2023-05-19T02:20:09.341Z,0.90
2023-05-19T02:22:37.059Z,0.70
2023-05-19T02:25:04.215Z,0.50
2023-05-19T02:27:34.178Z,0.70
2023-05-19T02:30:06.534Z,0.60
2023-05-19T02:32:33.613Z,1.02
2023-05-19T02:35:00.459Z,0.75
2023-05-19T02:37:28.556Z,0.70
2023-05-19T02:39:55.994Z,1.15
2023-05-19T02:42:22.779Z,0.77
2023-05-19T02:44:49.695Z,0.90
2023-05-19T02:47:16.533Z,0.80
2023-05-19T02:49:44.994Z,0.70
2023-05-19T02:52:12.171Z,0.70
2023-05-19T02:54:39.515Z,1.10
2023-05-19T02:57:06.829Z,2.08
2023-05-19T02:59:33.734Z,0.77
2023-05-19T03:02:01.710Z,0.65
2023-05-19T03:04:29.859Z,1.90
2023-05-19T03:06:57.649Z,1.63
2023-05-19T03:09:24.644Z,0.98
2023-05-19T03:11:51.702Z,0.63
2023-05-19T03:14:18.633Z,0.80
2023-05-19T03:16:45.586Z,1.20
2023-05-19T03:19:12.762Z,0.73
2023-05-19T03:21:39.695Z,0.82
2023-05-19T03:24:07.151Z,0.80
2023-05-19T03:26:34.598Z,1.40
2023-05-19T03:29:01.497Z,0.70
2023-05-19T03:31:31.236Z,0.77
2023-05-19T03:33:59.709Z,0.60
2023-05-19T03:36:31.941Z,1.10
2023-05-19T03:41:26.712Z,0.70
2023-05-19T03:43:53.514Z,1.10
2023-05-19T03:46:20.919Z,1.25
2023-05-19T03:48:47.829Z,0.95
2023-05-19T03:51:36.884Z,1.15
2023-05-19T03:54:18.985Z,1.10
2023-05-19T03:56:46.057Z,1.17
2023-05-19T03:59:12.917Z,1.05
2023-05-19T04:01:39.776Z,0.57
2023-05-19T04:04:06.602Z,0.73
2023-05-19T04:06:33.949Z,0.70
2023-05-19T04:09:03.776Z,0.82
2023-05-19T04:11:30.700Z,0.88
2023-05-19T04:13:58.199Z,0.90
2023-05-19T04:16:25.259Z,0.52
2023-05-19T04:18:52.185Z,1.10
2023-05-19T04:21:18.983Z,1.20
2023-05-19T04:23:45.860Z,0.90
2023-05-19T04:26:14.751Z,1.08
2023-05-19T04:28:44.583Z,0.68
2023-05-19T04:31:12.866Z,1.17
2023-05-19T04:33:40.146Z,0.80
2023-05-19T04:36:11.481Z,0.70
2023-05-19T04:38:40.443Z,0.80
2023-05-19T04:41:12.204Z,0.65
2023-05-19T04:43:41.945Z,0.63
2023-05-19T04:46:13.173Z,0.88
2023-05-19T04:48:41.682Z,0.90
2023-05-19T04:51:08.633Z,0.63
2023-05-19T04:53:36.628Z,1.00
2023-05-19T04:56:05.952Z,0.57
2023-05-19T04:58:34.089Z,0.50
2023-05-19T05:01:00.954Z,0.70
2023-05-19T05:03:30.925Z,0.90
2023-05-19T05:05:58.640Z,1.08
2023-05-19T05:08:25.785Z,0.57
2023-05-19T05:10:53.936Z,1.10
2023-05-19T05:13:23.271Z,1.00
2023-05-19T05:15:52.201Z,0.70
2023-05-19T05:18:19.551Z,1.10
2023-05-19T05:20:46.899Z,0.38
2023-05-19T05:23:16.711Z,0.50
2023-05-19T05:25:47.339Z,0.60
2023-05-19T05:28:15.557Z,0.75
2023-05-19T05:30:43.709Z,0.50
2023-05-19T05:33:11.734Z,0.80
2023-05-19T05:35:40.892Z,0.90
2023-05-19T05:38:11.434Z,1.15
2023-05-19T05:40:38.573Z,0.50
2023-05-19T05:43:06.108Z,1.05
2023-05-19T05:45:36.955Z,1.45
2023-05-19T05:48:06.231Z,0.90
2023-05-19T05:50:33.951Z,0.60
2023-05-19T05:53:03.599Z,1.42
2023-05-19T05:55:31.281Z,0.57
2023-05-19T05:58:02.080Z,0.70
2023-05-19T06:00:29.910Z,0.95
2023-05-19T06:02:57.197Z,1.13
2023-05-19T06:05:25.919Z,0.85
2023-05-19T06:07:54.130Z,0.80
2023-05-19T06:10:24.967Z,0.88
2023-05-19T06:12:52.904Z,0.77
2023-05-19T06:15:22.259Z,0.70
2023-05-19T06:18:00.618Z,0.65
2023-05-19T06:20:28.987Z,1.20
2023-05-19T06:22:56.491Z,1.10
2023-05-19T06:25:25.760Z,0.70
2023-05-19T06:27:52.788Z,0.88
2023-05-19T06:30:20.575Z,0.90
2023-05-19T06:32:57.403Z,0.90
2023-05-19T06:35:25.306Z,0.95
2023-05-19T06:37:53.121Z,1.23
2023-05-19T06:40:20.710Z,1.50
2023-05-19T06:42:47.987Z,1.08
2023-05-19T06:45:22.427Z,1.00
2023-05-19T06:47:51.173Z,1.10
2023-05-19T06:50:18.314Z,1.50
2023-05-19T06:52:47.175Z,1.20
2023-05-19T06:55:13.995Z,1.08
2023-05-19T06:57:40.814Z,0.63
2023-05-19T07:00:17.064Z,0.98
2023-05-19T07:02:47.817Z,0.77
2023-05-19T07:05:14.860Z,1.48
2023-05-19T07:07:44.816Z,1.40
2023-05-19T07:10:14.325Z,1.75
2023-05-19T07:12:41.604Z,1.90
2023-05-19T07:15:09.215Z,1.38
2023-05-19T07:17:37.990Z,1.20
2023-05-19T07:20:10.070Z,1.17
2023-05-19T07:22:38.586Z,1.60
2023-05-19T07:25:09.921Z,2.15
2023-05-19T07:27:37.458Z,1.33
2023-05-19T07:30:04.837Z,2.00
2023-05-19T07:32:31.593Z,1.35
2023-05-19T07:34:58.617Z,2.35
2023-05-19T07:37:26.342Z,2.10
2023-05-19T07:39:53.118Z,2.13
2023-05-19T07:42:19.849Z,1.85
2023-05-19T07:44:46.587Z,1.80
2023-05-19T07:47:13.352Z,1.90
2023-05-19T07:49:40.066Z,3.42
2023-05-19T07:52:07.024Z,1.95
2023-05-19T07:54:33.815Z,1.77
2023-05-19T07:57:00.957Z,1.85
2023-05-19T07:59:27.750Z,1.85
2023-05-19T08:01:54.533Z,2.17
2023-05-19T08:04:21.334Z,1.67
2023-05-19T08:06:48.199Z,2.10
2023-05-19T08:09:14.911Z,1.70
2023-05-19T08:11:41.660Z,1.58
2023-05-19T08:14:08.505Z,1.80
2023-05-19T08:16:35.447Z,2.10
2023-05-19T08:19:04.837Z,3.08
2023-05-19T08:21:34.627Z,2.28
2023-05-19T08:24:01.932Z,2.40
2023-05-19T08:26:29.199Z,2.03
2023-05-19T08:28:55.985Z,1.77
2023-05-19T08:31:22.771Z,1.83
2023-05-19T08:33:49.535Z,3.10
2023-05-19T08:36:17.121Z,1.60
2023-05-19T08:38:44.320Z,1.80
2023-05-19T08:41:11.247Z,1.92
2023-05-19T08:43:39.341Z,1.85
2023-05-19T08:46:08.142Z,2.10
2023-05-19T08:48:38.601Z,2.70
2023-05-19T08:51:05.347Z,1.50
2023-05-19T08:53:37.833Z,1.95
2023-05-19T08:56:21.814Z,2.70
2023-05-19T08:58:50.865Z,1.20
2023-05-19T09:01:18.429Z,1.98
2023-05-19T09:03:47.297Z,3.05
2023-05-19T09:06:14.259Z,1.23
2023-05-19T09:08:42.722Z,1.55
2023-05-19T09:11:10.449Z,1.42
2023-05-19T09:13:37.366Z,1.30
2023-05-19T09:16:04.848Z,1.20
2023-05-19T09:18:32.161Z,1.15
2023-05-19T09:21:04.852Z,2.13
2023-05-19T09:23:36.010Z,1.55
2023-05-19T09:26:09.175Z,1.05
2023-05-19T09:31:05.143Z,2.40
2023-05-19T09:33:35.022Z,2.10
2023-05-19T09:36:03.303Z,1.50
2023-05-19T09:38:30.077Z,2.30
2023-05-19T09:40:58.039Z,2.03
2023-05-19T09:43:33.267Z,2.10
2023-05-19T09:46:07.561Z,2.60
2023-05-19T09:48:36.466Z,2.30
2023-05-19T09:51:06.311Z,2.00
2023-05-19T09:53:34.691Z,3.17
2023-05-19T09:56:03.672Z,2.40
2023-05-19T09:58:37.701Z,2.22
2023-05-19T10:01:05.599Z,1.95
2023-05-19T10:03:33.772Z,2.55
2023-05-19T10:06:02.165Z,2.67
2023-05-19T10:08:30.397Z,2.70
2023-05-19T10:10:58.267Z,2.30
2023-05-19T10:13:25.920Z,2.63
2023-05-19T10:18:24.834Z,2.25
2023-05-19T10:20:52.656Z,2.70
2023-05-19T10:23:19.407Z,2.13
2023-05-19T10:25:47.798Z,2.38
2023-05-19T10:28:18.472Z,2.60
2023-05-19T10:30:49.302Z,2.17
2023-05-19T10:33:18.695Z,2.35
2023-05-19T10:36:27.588Z,2.53
2023-05-19T10:39:20.188Z,2.90
2023-05-19T10:42:10.224Z,2.67
2023-05-19T10:45:20.186Z,2.40
2023-05-19T10:47:47.135Z,3.67
2023-05-19T10:50:14.506Z,2.22
2023-05-19T10:52:41.305Z,2.70
2023-05-19T10:55:10.091Z,2.85
2023-05-19T10:57:37.059Z,2.55
2023-05-19T11:00:25.589Z,2.58
2023-05-19T11:02:56.250Z,3.40
2023-05-19T11:05:29.701Z,2.58
2023-05-19T11:08:04.538Z,2.83
2023-05-19T11:10:31.809Z,3.08
2023-05-19T11:12:58.733Z,2.30
2023-05-19T11:15:29.117Z,2.65
2023-05-19T11:17:56.687Z,2.53
2023-05-19T11:20:28.945Z,2.22
2023-05-19T11:23:06.795Z,2.13
2023-05-19T11:25:47.417Z,2.33
2023-05-19T11:28:17.579Z,2.42
2023-05-19T11:30:46.800Z,2.58
2023-05-19T11:33:14.216Z,2.63
2023-05-19T11:35:42.113Z,2.67
2023-05-19T11:38:08.880Z,2.08
2023-05-19T11:40:36.207Z,3.25
2023-05-19T11:43:03.034Z,3.55
2023-05-19T11:45:32.506Z,2.53
2023-05-19T11:48:02.100Z,3.92
2023-05-19T11:50:31.880Z,2.55
2023-05-19T11:53:00.909Z,2.78
2023-05-19T11:55:28.385Z,2.15
2023-05-19T11:58:04.727Z,2.00
2023-05-19T12:00:38.994Z,1.90
2023-05-19T12:03:06.621Z,2.38
2023-05-19T12:05:39.943Z,1.98
2023-05-19T12:08:08.946Z,2.30
2023-05-19T12:10:35.841Z,2.35
2023-05-19T12:13:03.395Z,1.55
2023-05-19T12:15:32.327Z,1.95
2023-05-19T12:18:01.372Z,1.77
2023-05-19T12:20:32.326Z,1.80
2023-05-19T12:23:01.074Z,1.60
2023-05-19T12:25:29.132Z,1.80
2023-05-19T12:28:00.662Z,1.95
2023-05-19T12:30:29.631Z,2.83
2023-05-19T12:32:57.738Z,1.83
2023-05-19T12:35:33.739Z,2.10
2023-05-19T12:38:06.814Z,2.13
2023-05-19T12:40:37.783Z,1.70
2023-05-19T12:43:06.617Z,1.70
2023-05-19T12:45:37.276Z,2.47
2023-05-19T12:48:16.120Z,2.13
2023-05-19T12:50:44.882Z,2.30
2023-05-19T12:53:12.927Z,1.70
2023-05-19T12:55:44.746Z,2.15
2023-05-19T12:58:12.627Z,1.73
2023-05-19T13:00:47.099Z,2.03
2023-05-19T13:03:20.045Z,2.25
2023-05-19T13:05:48.813Z,1.65
2023-05-19T13:08:23.974Z,1.60
2023-05-19T13:10:50.944Z,2.13
2023-05-19T13:13:18.084Z,1.70
2023-05-19T13:15:46.223Z,2.33
2023-05-19T13:18:14.012Z,2.45
2023-05-19T13:20:42.852Z,2.08
2023-05-19T13:23:13.593Z,2.15
2023-05-19T13:25:41.352Z,1.90
2023-05-19T13:28:08.636Z,1.90
2023-05-19T13:30:38.590Z,1.88
2023-05-19T13:33:05.788Z,1.90
2023-05-19T13:35:38.970Z,2.85
2023-05-19T13:38:12.443Z,1.98
2023-05-19T13:40:40.145Z,1.92
2023-05-19T13:43:07.833Z,1.90
2023-05-19T13:45:34.722Z,1.63
2023-05-19T13:48:01.797Z,1.77
2023-05-19T13:50:28.618Z,1.55
2023-05-19T13:52:55.452Z,1.40
2023-05-19T13:55:23.259Z,2.65
2023-05-19T13:57:50.829Z,1.60
2023-05-19T14:00:18.916Z,1.50
2023-05-19T14:02:46.207Z,1.67
2023-05-19T14:05:13.085Z,1.50
2023-05-19T14:07:40.172Z,1.63
2023-05-19T14:10:07.745Z,1.52
2023-05-19T14:12:49.363Z,1.60
2023-05-19T14:15:22.716Z,1.52
2023-05-19T14:17:49.639Z,1.80
2023-05-19T14:20:16.374Z,1.73
2023-05-19T14:22:43.142Z,1.27
2023-05-19T14:25:10.399Z,1.60
2023-05-19T14:27:37.392Z,1.25
2023-05-19T14:30:04.730Z,2.17
2023-05-19T14:32:31.553Z,1.38
2023-05-19T14:34:58.442Z,1.52
2023-05-19T14:37:28.791Z,1.80
2023-05-19T14:39:57.103Z,1.80
2023-05-19T14:42:23.989Z,1.63
2023-05-19T14:44:50.734Z,1.17
2023-05-19T14:47:17.462Z,1.55
2023-05-19T14:49:44.171Z,1.73
2023-05-19T14:52:10.895Z,1.02
2023-05-19T14:54:37.684Z,1.27
2023-05-19T14:57:04.644Z,1.17
2023-05-19T14:59:31.335Z,1.58
2023-05-19T15:01:58.159Z,1.20
2023-05-19T15:04:25.040Z,1.48
2023-05-19T15:07:05.919Z,0.95
2023-05-19T15:09:36.802Z,1.30
2023-05-19T15:12:03.756Z,0.85
2023-05-19T15:14:31.287Z,1.60
2023-05-19T15:16:58.899Z,1.00
2023-05-19T15:19:26.124Z,1.30
2023-05-19T15:21:53.082Z,1.20
2023-05-19T15:24:19.816Z,1.25
2023-05-19T15:26:47.159Z,1.38
2023-05-19T15:29:13.902Z,0.90
2023-05-19T15:31:40.838Z,1.20
2023-05-19T15:34:07.652Z,1.00
2023-05-19T15:36:34.341Z,1.13
2023-05-19T15:39:01.103Z,1.05
2023-05-19T15:41:27.899Z,1.63
2023-05-19T15:43:54.745Z,1.05
2023-05-19T15:46:21.528Z,1.20
2023-05-19T15:48:48.330Z,1.02
2023-05-19T15:51:15.200Z,1.33
2023-05-19T15:53:42.029Z,1.00
2023-05-19T15:56:08.857Z,1.02
2023-05-19T15:58:35.860Z,1.30
2023-05-19T16:01:03.182Z,1.05
2023-05-19T16:03:30.058Z,1.50
2023-05-19T16:05:56.969Z,0.93
2023-05-19T16:08:23.934Z,1.35
2023-05-19T16:10:50.804Z,2.80
2023-05-19T16:13:17.626Z,1.00
2023-05-19T16:15:44.372Z,1.00
2023-05-19T16:18:11.707Z,1.48
2023-05-19T16:20:38.737Z,1.27
2023-05-19T16:23:05.624Z,1.20
2023-05-19T16:25:32.688Z,1.40
2023-05-19T16:27:59.502Z,1.55
2023-05-19T16:30:27.887Z,1.33
2023-05-19T16:32:54.818Z,1.30
2023-05-19T16:35:22.090Z,1.40
2023-05-19T16:37:49.412Z,1.25
2023-05-19T16:40:16.277Z,1.80
2023-05-19T16:42:43.062Z,1.35
2023-05-19T16:45:10.524Z,1.02
2023-05-19T16:47:37.497Z,1.30
2023-05-19T16:50:04.758Z,1.40
2023-05-19T16:52:31.517Z,1.00
2023-05-19T16:54:58.258Z,1.15
2023-05-19T16:57:25.013Z,1.63
2023-05-19T16:59:51.805Z,1.02
2023-05-19T17:02:18.715Z,1.90
2023-05-19T17:04:45.530Z,1.08
2023-05-19T17:07:16.105Z,1.52
2023-05-19T17:09:43.521Z,1.05
2023-05-19T17:12:10.814Z,1.63
2023-05-19T17:14:37.589Z,1.42
2023-05-19T17:17:04.692Z,1.38
2023-05-19T17:19:31.566Z,1.35
2023-05-19T17:21:58.378Z,1.20
2023-05-19T17:24:25.283Z,1.48
2023-05-19T17:26:52.401Z,1.60
2023-05-19T17:29:19.098Z,1.33
2023-05-19T17:31:45.872Z,1.30
2023-05-19T17:34:12.679Z,1.20
2023-05-19T17:36:39.407Z,1.40
2023-05-19T17:39:07.235Z,1.60
2023-05-19T17:41:33.939Z,1.10
2023-05-19T17:44:00.938Z,1.20
2023-05-19T17:46:30.156Z,1.13
2023-05-19T17:48:56.941Z,1.10
2023-05-19T17:51:23.967Z,1.00
2023-05-19T17:53:51.010Z,1.13
2023-05-19T17:56:19.749Z,1.27
2023-05-19T17:58:47.022Z,1.02
2023-05-19T18:01:14.877Z,1.30
2023-05-19T18:03:43.526Z,1.58
2023-05-19T18:06:11.756Z,1.38
2023-05-19T18:08:39.553Z,0.98
2023-05-19T18:11:06.677Z,0.82
2023-05-19T18:13:33.412Z,1.45
2023-05-19T18:16:00.305Z,1.25
2023-05-19T18:18:27.084Z,1.52
2023-05-19T18:20:54.794Z,1.23
2023-05-19T18:23:22.485Z,1.60
2023-05-19T18:25:50.839Z,1.20
2023-05-19T18:28:17.601Z,1.33
2023-05-19T18:30:44.394Z,0.85
2023-05-19T18:33:11.214Z,1.65
2023-05-19T18:35:38.056Z,1.08
2023-05-19T18:38:04.872Z,0.98
2023-05-19T18:40:31.847Z,1.75
2023-05-19T18:42:58.644Z,1.45
2023-05-19T18:45:25.404Z,0.82
2023-05-19T18:47:52.165Z,1.73
2023-05-19T18:50:19.159Z,1.80
2023-05-19T18:52:45.890Z,1.55
2023-05-19T18:55:12.651Z,1.10
2023-05-19T18:57:39.378Z,0.93
2023-05-19T19:00:06.941Z,0.90
2023-05-19T19:02:33.795Z,1.83
2023-05-19T19:05:00.744Z,0.73
2023-05-19T19:07:27.860Z,1.67
2023-05-19T19:09:54.661Z,1.15
2023-05-19T19:12:21.383Z,1.10
2023-05-19T19:14:48.254Z,1.85
2023-05-19T19:17:15.153Z,1.17
2023-05-19T19:19:42.289Z,2.03
2023-05-19T19:22:09.292Z,1.15
2023-05-19T19:24:36.072Z,2.00
2023-05-19T19:27:02.997Z,1.88
2023-05-19T19:29:29.971Z,1.15
2023-05-19T19:31:56.751Z,1.02
2023-05-19T19:34:23.578Z,1.40
2023-05-19T19:36:50.626Z,1.10
2023-05-19T19:39:17.447Z,1.40
2023-05-19T19:41:45.034Z,0.93
2023-05-19T19:44:13.582Z,1.58
2023-05-19T19:46:41.541Z,1.58
2023-05-19T19:49:08.513Z,1.42
2023-05-19T19:51:35.320Z,1.50
2023-05-19T19:54:02.113Z,1.05
2023-05-19T19:56:28.872Z,1.10
2023-05-19T19:58:59.124Z,1.40
2023-05-19T20:01:27.631Z,0.80
2023-05-19T20:03:55.445Z,1.00
2023-05-19T20:06:22.441Z,1.15
2023-05-19T20:08:49.507Z,1.27
2023-05-19T20:11:16.666Z,1.52
2023-05-19T20:13:43.511Z,1.27
2023-05-19T20:16:10.400Z,1.13
2023-05-19T20:18:37.245Z,1.48
2023-05-19T20:21:04.101Z,1.30
2023-05-19T20:23:30.897Z,1.40
2023-05-19T20:26:10.722Z,1.77
2023-05-19T20:28:39.769Z,1.73
2023-05-19T20:31:06.831Z,0.90
2023-05-19T20:33:33.723Z,1.05
2023-05-19T20:36:00.511Z,1.10
2023-05-19T20:38:27.724Z,1.33
2023-05-19T20:40:54.747Z,1.40
2023-05-19T20:43:21.628Z,1.42
2023-05-19T20:45:48.614Z,1.38
2023-05-19T20:48:18.573Z,1.20
2023-05-19T20:50:45.781Z,1.20
2023-05-19T20:53:12.617Z,1.00
2023-05-19T20:55:39.446Z,0.93
2023-05-19T20:58:06.467Z,1.30
2023-05-19T21:00:33.496Z,1.42
2023-05-19T21:03:00.825Z,1.58
2023-05-19T21:05:27.732Z,1.30
2023-05-19T21:07:54.593Z,1.17
2023-05-19T21:10:21.561Z,1.33
2023-05-19T21:12:48.440Z,1.23
2023-05-19T21:15:15.710Z,1.10
2023-05-19T21:17:42.693Z,0.93
2023-05-19T21:20:10.375Z,1.02
2023-05-19T21:22:37.126Z,1.20
2023-05-19T21:25:04.234Z,1.55
2023-05-19T21:27:32.889Z,1.48
2023-05-19T21:29:59.990Z,1.35
2023-05-19T21:32:27.703Z,1.30
2023-05-19T21:34:54.506Z,1.40
2023-05-19T21:37:22.338Z,1.83
2023-05-19T21:39:49.113Z,1.67
2023-05-19T21:42:15.962Z,1.38
2023-05-19T21:44:42.802Z,1.50
2023-05-19T21:47:09.541Z,1.48
2023-05-19T21:49:38.191Z,1.20
2023-05-19T21:52:05.876Z,0.90
2023-05-19T21:54:32.641Z,1.80
2023-05-19T21:56:59.629Z,1.10
2023-05-19T21:59:26.485Z,1.50
2023-05-19T22:01:53.301Z,1.30
2023-05-19T22:04:21.460Z,1.10
2023-05-19T22:06:48.548Z,1.20
2023-05-19T22:09:15.328Z,1.27
2023-05-19T22:11:42.163Z,1.35
2023-05-19T22:14:08.889Z,1.33
2023-05-19T22:16:35.720Z,1.33
2023-05-19T22:19:02.610Z,1.27
2023-05-19T22:21:29.440Z,1.73
2023-05-19T22:23:56.255Z,1.40
2023-05-19T22:26:23.043Z,1.65
2023-05-19T22:28:50.384Z,1.17
2023-05-19T22:31:17.649Z,1.38
2023-05-19T22:33:44.540Z,1.33
2023-05-19T22:36:11.410Z,1.13
2023-05-19T22:38:38.261Z,2.25
2023-05-19T22:41:05.476Z,1.25
2023-05-19T22:43:32.252Z,1.65
2023-05-19T22:45:59.172Z,2.13
2023-05-19T22:48:26.072Z,1.15
2023-05-19T22:50:52.996Z,1.58
2023-05-19T22:53:19.767Z,0.90
2023-05-19T22:55:46.652Z,1.20
2023-05-19T22:58:13.517Z,1.27
2023-05-19T23:00:40.466Z,1.02
2023-05-19T23:03:07.279Z,1.25
2023-05-19T23:05:34.734Z,1.35
2023-05-19T23:08:01.637Z,1.00
2023-05-19T23:10:28.421Z,1.10
2023-05-19T23:12:55.361Z,1.65
2023-05-19T23:15:22.122Z,1.17
2023-05-19T23:17:48.897Z,1.83
2023-05-19T23:20:15.769Z,1.48
2023-05-19T23:22:42.545Z,1.27
2023-05-19T23:25:09.896Z,1.55
2023-05-19T23:27:36.668Z,1.73
2023-05-19T23:30:04.141Z,1.40
2023-05-19T23:32:30.942Z,1.38
2023-05-19T23:34:57.757Z,1.60
2023-05-19T23:37:24.605Z,1.02
2023-05-19T23:39:51.472Z,1.63
2023-05-19T23:42:18.570Z,1.15
2023-05-19T23:44:45.581Z,1.48
2023-05-19T23:47:12.388Z,1.38
2023-05-19T23:49:39.105Z,1.05
2023-05-19T23:52:06.318Z,0.85
2023-05-19T23:54:33.126Z,1.40
2023-05-19T23:57:02.644Z,2.35
2023-05-19T23:59:29.424Z,1.63
